Time;durP1;ratioP1;P1;durP2;ratioP2;P2;SDS_P1;SDS_P2;PMS_P1;PMS_P2;Temp;Humidity;BMP_temperature;BMP_pressure;BME280_temperature;BME280_humidity;BME280_pressure;Samples;Min_cycle;Max_cycle;Signal;HPM_P1;HPM_P2
2021/10/17 00:00:16;;;;;;;1.00;1.00;;;;;;;;;;7331259;19;162370;-15
2021/10/17 00:02:47;;;;;;;0.90;0.90;;;;;;;;;;7329465;19;153940;-16
2021/10/17 00:05:21;;;;;;;0.98;0.98;;;;;;;;;;7331442;19;153779;-14
2021/10/17 00:07:50;;;;;;;0.93;0.93;;;;;;;;;;7333743;19;161649;-17
2021/10/17 00:10:25;;;;;;;1.05;1.05;;;;;;;;;;7331083;19;162372;-17
2021/10/17 00:12:54;;;;;;;0.82;0.82;;;;;;;;;;7331471;19;154010;-15
2021/10/17 00:15:24;;;;;;;1.15;0.82;;;;;;;;;;7331280;19;153581;-14
2021/10/17 00:17:52;;;;;;;0.93;0.93;;;;;;;;;;7328710;19;162493;-15
2021/10/17 00:20:22;;;;;;;0.90;0.90;;;;;;;;;;7333769;19;162591;-13
2021/10/17 00:22:51;;;;;;;1.17;1.10;;;;;;;;;;7329805;19;153991;-16
2021/10/17 00:25:20;;;;;;;1.05;1.05;;;;;;;;;;7330950;19;153498;-13
2021/10/17 00:27:49;;;;;;;0.80;0.80;;;;;;;;;;7331182;19;161862;-17
2021/10/17 00:30:24;;;;;;;0.80;0.80;;;;;;;;;;7333260;19;162615;-15
2021/10/17 00:32:53;;;;;;;0.85;0.85;;;;;;;;;;7329488;19;154262;-17
2021/10/17 00:35:21;;;;;;;0.98;0.98;;;;;;;;;;7330933;19;153659;-13
2021/10/17 00:37:49;;;;;;;1.08;0.95;;;;;;;;;;7328200;19;161944;-15
2021/10/17 00:40:19;;;;;;;0.85;0.85;;;;;;;;;;7329322;19;162454;-17
2021/10/17 00:42:49;;;;;;;0.90;0.90;;;;;;;;;;7330744;19;154044;-14
2021/10/17 00:45:20;;;;;;;1.17;0.90;;;;;;;;;;7330529;19;153618;-14
2021/10/17 00:47:49;;;;;;;0.80;0.80;;;;;;;;;;7328775;19;162042;-16
2021/10/17 00:50:17;;;;;;;1.20;1.10;;;;;;;;;;7329098;19;163091;-17
2021/10/17 00:52:45;;;;;;;0.82;0.82;;;;;;;;;;7329453;19;153960;-15
2021/10/17 00:55:15;;;;;;;0.90;0.90;;;;;;;;;;7330370;19;153957;-15
2021/10/17 00:57:45;;;;;;;1.42;0.95;;;;;;;;;;7329978;19;161982;-15
2021/10/17 01:00:15;;;;;;;0.70;0.70;;;;;;;;;;7329885;19;162924;-17
2021/10/17 01:02:43;;;;;;;0.80;0.80;;;;;;;;;;7327921;19;154049;-14
2021/10/17 01:05:16;;;;;;;0.93;0.93;;;;;;;;;;7330260;19;153524;-14
2021/10/17 01:07:44;;;;;;;;;;;;;;;;;;7330403;19;161941;-14
2021/10/17 01:10:18;;;;;;;1.05;0.80;;;;;;;;;;7328282;19;162732;-14
2021/10/17 01:12:48;;;;;;;1.00;1.00;;;;;;;;;;7328590;19;154157;-16
2021/10/17 01:15:18;;;;;;;1.00;0.77;;;;;;;;;;7328567;19;153628;-17
2021/10/17 01:17:51;;;;;;;1.00;1.00;;;;;;;;;;7327504;19;161795;-15
2021/10/17 01:20:20;;;;;;;0.65;0.65;;;;;;;;;;7328129;19;162566;-15
2021/10/17 01:22:50;;;;;;;0.70;0.70;;;;;;;;;;7327008;19;153957;-13
2021/10/17 01:25:18;;;;;;;0.88;0.88;;;;;;;;;;7328743;19;153870;-14
2021/10/17 01:27:47;;;;;;;0.80;0.80;;;;;;;;;;7331627;19;162129;-15
2021/10/17 01:30:17;;;;;;;0.90;0.90;;;;;;;;;;7327562;19;162518;-17
2021/10/17 01:32:48;;;;;;;0.90;0.90;;;;;;;;;;7327860;19;153750;-15
2021/10/17 01:35:16;;;;;;;0.80;0.80;;;;;;;;;;7328850;19;153359;-16
2021/10/17 01:37:44;;;;;;;0.80;0.80;;;;;;;;;;7325753;19;161838;-16
2021/10/17 01:40:12;;;;;;;0.80;0.80;;;;;;;;;;7327146;19;162472;-14
2021/10/17 01:42:41;;;;;;;0.80;0.80;;;;;;;;;;7327419;19;153979;-17
2021/10/17 01:45:09;;;;;;;0.80;0.80;;;;;;;;;;7327248;19;153632;-15
2021/10/17 01:47:43;;;;;;;0.70;0.70;;;;;;;;;;7326841;19;161944;-15
2021/10/17 01:50:13;;;;;;;0.70;0.70;;;;;;;;;;7328202;19;162723;-16
2021/10/17 01:52:43;;;;;;;0.70;0.70;;;;;;;;;;7327474;19;154273;-16
2021/10/17 01:55:11;;;;;;;0.85;0.85;;;;;;;;;;7327131;19;153898;-16
2021/10/17 01:57:40;;;;;;;0.73;0.73;;;;;;;;;;7325462;19;162236;-16
2021/10/17 02:00:12;;;;;;;0.82;0.82;;;;;;;;;;7326667;19;163496;-13
2021/10/17 02:02:40;;;;;;;0.80;0.80;;;;;;;;;;7326024;19;154894;-15
2021/10/17 02:05:16;;;;;;;0.70;0.70;;;;;;;;;;7327186;19;154297;-14
2021/10/17 02:07:47;;;;;;;0.80;0.80;;;;;;;;;;7326670;19;161938;-14
2021/10/17 02:10:15;;;;;;;0.70;0.70;;;;;;;;;;7326230;19;162505;-12
2021/10/17 02:12:44;;;;;;;1.00;0.90;;;;;;;;;;7328415;19;154151;-13
2021/10/17 02:15:12;;;;;;;0.80;0.80;;;;;;;;;;7323265;19;153643;-16
2021/10/17 02:17:43;;;;;;;0.70;0.70;;;;;;;;;;7326074;19;162171;-15
2021/10/17 02:20:13;;;;;;;0.70;0.70;;;;;;;;;;7327326;19;162674;-15
2021/10/17 02:22:41;;;;;;;0.80;0.80;;;;;;;;;;7327758;19;154169;-16
2021/10/17 02:25:10;;;;;;;0.70;0.70;;;;;;;;;;7327447;19;153723;-15
2021/10/17 02:27:38;;;;;;;0.80;0.80;;;;;;;;;;7327277;19;161826;-15
2021/10/17 02:30:09;;;;;;;0.85;0.85;;;;;;;;;;7327074;19;162639;-14
2021/10/17 02:32:41;;;;;;;0.80;0.80;;;;;;;;;;7327857;19;153993;-13
2021/10/17 02:35:27;;;;;;;0.60;0.60;;;;;;;;;;7333436;19;153589;-15
2021/10/17 02:37:55;;;;;;;0.70;0.70;;;;;;;;;;7332578;19;162177;-15
2021/10/17 02:40:25;;;;;;;0.95;0.85;;;;;;;;;;7333818;19;162626;-13
2021/10/17 02:42:53;;;;;;;0.77;0.77;;;;;;;;;;7334112;19;154333;-15
2021/10/17 02:45:21;;;;;;;0.70;0.70;;;;;;;;;;7333917;19;153589;-15
2021/10/17 02:47:49;;;;;;;0.80;0.80;;;;;;;;;;7335898;19;161883;-14
2021/10/17 02:50:18;;;;;;;0.70;0.70;;;;;;;;;;7331933;19;162445;-14
2021/10/17 02:52:49;;;;;;;0.70;0.70;;;;;;;;;;7335418;19;154261;-16
2021/10/17 02:55:22;;;;;;;0.75;0.75;;;;;;;;;;7333815;19;153866;-24
2021/10/17 02:57:51;;;;;;;1.05;0.95;;;;;;;;;;7330977;19;162139;-14
2021/10/17 03:00:20;;;;;;;0.75;0.75;;;;;;;;;;7332077;19;162769;-15
2021/10/17 03:02:51;;;;;;;0.90;0.90;;;;;;;;;;7330403;19;154030;-14
2021/10/17 03:05:20;;;;;;;0.70;0.70;;;;;;;;;;7332430;19;153657;-14
2021/10/17 03:07:49;;;;;;;0.80;0.80;;;;;;;;;;7331975;19;161891;-14
2021/10/17 03:10:17;;;;;;;0.77;0.77;;;;;;;;;;7331648;19;162575;-17
2021/10/17 03:12:46;;;;;;;0.70;0.70;;;;;;;;;;7331946;19;154274;-14
2021/10/17 03:15:19;;;;;;;0.70;0.70;;;;;;;;;;7331836;19;153798;-16
2021/10/17 03:17:48;;;;;;;0.80;0.80;;;;;;;;;;7331978;19;161861;-15
2021/10/17 03:20:16;;;;;;;0.80;0.80;;;;;;;;;;7331594;19;162597;-16
2021/10/17 03:22:46;;;;;;;0.70;0.70;;;;;;;;;;7331958;19;154052;-12
2021/10/17 03:25:15;;;;;;;0.68;0.68;;;;;;;;;;7331697;19;153720;-14
2021/10/17 03:27:46;;;;;;;0.70;0.70;;;;;;;;;;7331373;19;161993;-12
2021/10/17 03:30:23;;;;;;;0.60;0.60;;;;;;;;;;7331145;19;162401;-14
2021/10/17 03:32:52;;;;;;;0.80;0.80;;;;;;;;;;7331667;19;154110;-13
2021/10/17 03:35:20;;;;;;;1.10;0.60;;;;;;;;;;7332826;19;153525;-15
2021/10/17 03:37:48;;;;;;;0.80;0.80;;;;;;;;;;7330390;19;161971;-13
2021/10/17 03:40:17;;;;;;;0.70;0.70;;;;;;;;;;7330955;19;162410;-14
2021/10/17 03:42:46;;;;;;;0.60;0.60;;;;;;;;;;7335112;19;154407;-13
2021/10/17 03:45:14;;;;;;;0.65;0.65;;;;;;;;;;7332865;19;153615;-14
2021/10/17 03:47:42;;;;;;;0.70;0.70;;;;;;;;;;7333188;19;161876;-17
2021/10/17 03:50:10;;;;;;;0.65;0.65;;;;;;;;;;7332956;19;162456;-17
2021/10/17 03:52:38;;;;;;;0.50;0.50;;;;;;;;;;7332112;19;154001;-15
2021/10/17 03:55:09;;;;;;;0.93;0.80;;;;;;;;;;7332119;19;153589;-17
2021/10/17 03:57:37;;;;;;;1.20;0.77;;;;;;;;;;7331207;19;161899;-18
2021/10/17 04:00:07;;;;;;;0.60;0.60;;;;;;;;;;7331496;19;162684;-18
2021/10/17 04:02:39;;;;;;;1.85;0.80;;;;;;;;;;7331971;19;154163;-16
2021/10/17 04:05:09;;;;;;;0.70;0.70;;;;;;;;;;7330810;19;153583;-14
2021/10/17 04:07:39;;;;;;;0.60;0.60;;;;;;;;;;7330525;19;162101;-16
2021/10/17 04:10:08;;;;;;;0.60;0.60;;;;;;;;;;7331218;19;162347;-28
2021/10/17 04:12:36;;;;;;;0.70;0.70;;;;;;;;;;7330127;19;154013;-16
2021/10/17 04:15:07;;;;;;;0.70;0.70;;;;;;;;;;7330419;19;153682;-15
2021/10/17 04:17:41;;;;;;;0.75;0.75;;;;;;;;;;7329697;19;161933;-16
2021/10/17 04:20:11;;;;;;;0.60;0.60;;;;;;;;;;7329622;19;162493;-13
2021/10/17 04:22:41;;;;;;;0.55;0.55;;;;;;;;;;7329838;19;154334;-16
2021/10/17 04:25:09;;;;;;;0.90;0.60;;;;;;;;;;7333813;19;153523;-15
2021/10/17 04:27:38;;;;;;;1.05;0.60;;;;;;;;;;7328530;19;161967;-14
2021/10/17 04:30:08;;;;;;;0.70;0.70;;;;;;;;;;7326063;19;162422;-14
2021/10/17 04:32:37;;;;;;;0.75;0.68;;;;;;;;;;7331798;19;154177;-14
2021/10/17 04:35:06;;;;;;;0.60;0.60;;;;;;;;;;7331882;19;153751;-16
2021/10/17 04:37:35;;;;;;;0.60;0.60;;;;;;;;;;7330920;19;161765;-17
2021/10/17 04:40:06;;;;;;;0.60;0.60;;;;;;;;;;7330646;19;162361;-13
2021/10/17 04:42:35;;;;;;;0.60;0.60;;;;;;;;;;7330454;19;154036;-15
2021/10/17 04:45:06;;;;;;;0.60;0.60;;;;;;;;;;7331710;19;153589;-15
2021/10/17 04:47:35;;;;;;;0.60;0.60;;;;;;;;;;7332678;19;161822;-14
2021/10/17 04:50:05;;;;;;;0.70;0.60;;;;;;;;;;7329044;19;162536;-15
2021/10/17 04:52:36;;;;;;;0.55;0.55;;;;;;;;;;7332214;19;154085;-17
2021/10/17 04:55:08;;;;;;;0.60;0.60;;;;;;;;;;7330297;19;153718;-13
2021/10/17 04:57:38;;;;;;;0.60;0.60;;;;;;;;;;7327594;19;162034;-13
2021/10/17 05:00:09;;;;;;;0.60;0.60;;;;;;;;;;7329712;19;162543;-14
2021/10/17 05:02:56;;;;;;;0.57;0.57;;;;;;;;;;7327906;19;154348;-17
2021/10/17 05:05:24;;;;;;;1.05;0.60;;;;;;;;;;7329867;19;153858;-14
2021/10/17 05:07:52;;;;;;;0.60;0.60;;;;;;;;;;7329391;19;161857;-14
2021/10/17 05:10:20;;;;;;;0.60;0.60;;;;;;;;;;7330175;19;162435;-14
2021/10/17 05:12:48;;;;;;;0.50;0.50;;;;;;;;;;7330356;19;154053;-15
2021/10/17 05:15:18;;;;;;;0.65;0.65;;;;;;;;;;7329490;19;153588;-15
2021/10/17 05:17:46;;;;;;;0.50;0.50;;;;;;;;;;7328983;19;161850;-14
2021/10/17 05:20:15;;;;;;;0.50;0.50;;;;;;;;;;7330750;19;162577;-16
2021/10/17 05:22:44;;;;;;;0.50;0.50;;;;;;;;;;7331666;19;155000;-15
2021/10/17 05:25:13;;;;;;;0.60;0.60;;;;;;;;;;7329096;19;153649;-15
2021/10/17 05:27:43;;;;;;;0.60;0.60;;;;;;;;;;7328790;19;162210;-17
2021/10/17 05:30:11;;;;;;;0.50;0.50;;;;;;;;;;7328642;19;162426;-17
2021/10/17 05:32:39;;;;;;;0.60;0.60;;;;;;;;;;7332379;19;154085;-14
2021/10/17 05:35:08;;;;;;;0.52;0.52;;;;;;;;;;7328936;19;153682;-15
2021/10/17 05:37:37;;;;;;;0.50;0.50;;;;;;;;;;7329548;19;162215;-13
2021/10/17 05:40:06;;;;;;;0.45;0.45;;;;;;;;;;7325903;19;162535;-15
2021/10/17 05:42:37;;;;;;;0.43;0.43;;;;;;;;;;7328803;19;153986;-16
2021/10/17 05:45:05;;;;;;;0.60;0.60;;;;;;;;;;7328538;19;153637;-17
2021/10/17 05:47:36;;;;;;;0.50;0.50;;;;;;;;;;7327945;19;161837;-15
2021/10/17 05:50:05;;;;;;;0.60;0.60;;;;;;;;;;7328092;19;163107;-16
2021/10/17 05:52:33;;;;;;;0.60;0.60;;;;;;;;;;7328285;19;154086;-16
2021/10/17 05:55:01;;;;;;;0.50;0.50;;;;;;;;;;7328320;19;153560;-18
2021/10/17 05:57:30;;;;;;;0.70;0.70;;;;;;;;;;7328195;19;162070;-14
2021/10/17 05:59:57;;;;;;;0.40;0.40;;;;;;;;;;7325746;19;162461;-16
2021/10/17 06:02:26;;;;;;;0.50;0.50;;;;;;;;;;7326587;19;154037;-17
2021/10/17 06:04:57;;;;;;;0.50;0.50;;;;;;;;;;7328052;19;153563;-16
2021/10/17 06:07:25;;;;;;;0.40;0.40;;;;;;;;;;7328184;19;162001;-14
2021/10/17 06:09:53;;;;;;;0.50;0.50;;;;;;;;;;7334431;19;162433;-15
2021/10/17 06:12:26;;;;;;;0.57;0.57;;;;;;;;;;7334651;19;154267;-17
2021/10/17 06:14:54;;;;;;;0.50;0.50;;;;;;;;;;7334722;19;153610;-15
2021/10/17 06:17:22;;;;;;;0.88;0.50;;;;;;;;;;7334141;19;162434;-14
2021/10/17 06:19:50;;;;;;;0.57;0.57;;;;;;;;;;7332725;19;162477;-17
2021/10/17 06:22:17;;;;;;;0.60;0.60;;;;;;;;;;7334579;19;154067;-16
2021/10/17 06:24:47;;;;;;;0.50;0.50;;;;;;;;;;7334433;19;153738;-17
2021/10/17 06:27:15;;;;;;;0.50;0.50;;;;;;;;;;7335293;19;161837;-17
2021/10/17 06:29:45;;;;;;;0.60;0.60;;;;;;;;;;7334119;19;162570;-14
2021/10/17 06:32:13;;;;;;;0.50;0.50;;;;;;;;;;7334209;19;154014;-13
2021/10/17 06:34:44;;;;;;;0.50;0.50;;;;;;;;;;7334106;19;153530;-17
2021/10/17 06:37:13;;;;;;;0.60;0.60;;;;;;;;;;7333784;19;162045;-17
2021/10/17 06:39:41;;;;;;;0.40;0.40;;;;;;;;;;7332249;19;162501;-17
2021/10/17 06:42:14;;;;;;;0.60;0.60;;;;;;;;;;7333908;19;154037;-14
2021/10/17 06:45:18;;;;;;;0.50;0.50;;;;;;;;;;7332011;19;153689;-16
2021/10/17 06:47:46;;;;;;;0.50;0.50;;;;;;;;;;7332738;19;162027;-16
2021/10/17 06:50:17;;;;;;;0.50;0.50;;;;;;;;;;7332949;19;162484;-18
2021/10/17 06:52:45;;;;;;;0.60;0.60;;;;;;;;;;7332978;19;154276;-16
2021/10/17 06:55:14;;;;;;;0.50;0.50;;;;;;;;;;7334516;19;153582;-17
2021/10/17 06:57:44;;;;;;;0.40;0.40;;;;;;;;;;7333122;19;161936;-16
2021/10/17 07:00:14;;;;;;;0.40;0.40;;;;;;;;;;7331231;19;163129;-15
2021/10/17 07:02:45;;;;;;;0.40;0.40;;;;;;;;;;7331962;19;154045;-16
2021/10/17 07:05:14;;;;;;;0.50;0.50;;;;;;;;;;7332981;19;153667;-16
2021/10/17 07:07:43;;;;;;;0.50;0.50;;;;;;;;;;7332833;19;162032;-15
2021/10/17 07:10:11;;;;;;;0.47;0.47;;;;;;;;;;7332656;19;162472;-16
2021/10/17 07:13:02;;;;;;;0.50;0.50;;;;;;;;;;7332312;19;154353;-14
2021/10/17 07:15:45;;;;;;;0.43;0.43;;;;;;;;;;7332742;19;153779;-16
2021/10/17 07:18:17;;;;;;;0.50;0.50;;;;;;;;;;7332589;19;162113;-17
2021/10/17 07:20:46;;;;;;;0.50;0.50;;;;;;;;;;7328589;19;162717;-14
2021/10/17 07:23:15;;;;;;;0.50;0.50;;;;;;;;;;7332368;19;154376;-15
2021/10/17 07:25:44;;;;;;;0.40;0.40;;;;;;;;;;7332363;19;153513;-15
2021/10/17 07:28:12;;;;;;;0.50;0.50;;;;;;;;;;7332206;19;161969;-16
2021/10/17 07:31:05;;;;;;;0.50;0.50;;;;;;;;;;7332087;19;162539;-16
2021/10/17 07:33:52;;;;;;;0.40;0.40;;;;;;;;;;7332473;19;154037;-15
2021/10/17 07:36:22;;;;;;;0.50;0.50;;;;;;;;;;7332418;19;153840;-16
2021/10/17 07:39:04;;;;;;;0.40;0.40;;;;;;;;;;7331266;19;162143;-14
2021/10/17 07:41:36;;;;;;;0.50;0.50;;;;;;;;;;7331906;19;162632;-14
2021/10/17 07:44:07;;;;;;;0.40;0.40;;;;;;;;;;7332095;19;154450;-13
2021/10/17 07:46:45;;;;;;;0.40;0.40;;;;;;;;;;7331802;19;153679;-14
2021/10/17 07:49:13;;;;;;;0.55;0.55;;;;;;;;;;7331226;19;162265;-17
2021/10/17 07:51:42;;;;;;;0.40;0.40;;;;;;;;;;7330683;19;162608;-16
2021/10/17 07:54:11;;;;;;;0.40;0.40;;;;;;;;;;7331316;19;154279;-16
2021/10/17 07:56:42;;;;;;;0.40;0.40;;;;;;;;;;7331003;19;153857;-16
2021/10/17 07:59:10;;;;;;;0.40;0.40;;;;;;;;;;7331023;19;161924;-14
2021/10/17 08:01:41;;;;;;;0.40;0.40;;;;;;;;;;7330229;19;162375;-15
2021/10/17 08:04:48;;;;;;;0.40;0.40;;;;;;;;;;7332911;19;154317;-13
2021/10/17 08:07:24;;;;;;;0.50;0.50;;;;;;;;;;7331724;19;153691;-15
2021/10/17 08:09:53;;;;;;;0.47;0.47;;;;;;;;;;7331372;19;161889;-16
2021/10/17 08:12:22;;;;;;;0.40;0.40;;;;;;;;;;7331437;19;162546;-14
2021/10/17 08:14:49;;;;;;;0.50;0.50;;;;;;;;;;7332996;19;153995;-15
2021/10/17 08:17:19;;;;;;;0.65;0.50;;;;;;;;;;7331426;19;153703;-16
2021/10/17 08:19:56;;;;;;;0.50;0.50;;;;;;;;;;7330227;19;161932;-13
2021/10/17 08:22:24;;;;;;;0.50;0.50;;;;;;;;;;7330934;19;162564;-16
2021/10/17 08:24:52;;;;;;;0.40;0.40;;;;;;;;;;7331448;19;154040;-15
2021/10/17 08:27:20;;;;;;;0.50;0.50;;;;;;;;;;7331175;19;153754;-13
2021/10/17 08:29:49;;;;;;;0.40;0.40;;;;;;;;;;7330872;19;162051;-16
2021/10/17 08:32:18;;;;;;;0.50;0.50;;;;;;;;;;7327831;19;162475;-12
2021/10/17 08:34:46;;;;;;;0.50;0.50;;;;;;;;;;7332380;19;153987;-13
2021/10/17 08:37:16;;;;;;;0.50;0.50;;;;;;;;;;7331022;19;153611;-14
2021/10/17 08:40:14;;;;;;;0.50;0.50;;;;;;;;;;7328212;19;162171;-13
2021/10/17 08:43:11;;;;;;;0.40;0.40;;;;;;;;;;7331442;19;162499;-16
2021/10/17 08:45:46;;;;;;;0.40;0.40;;;;;;;;;;7330726;19;154037;-13
2021/10/17 08:48:15;;;;;;;0.40;0.40;;;;;;;;;;7330611;19;153823;-13
2021/10/17 08:50:54;;;;;;;0.38;0.38;;;;;;;;;;7330177;19;162155;-12
2021/10/17 08:53:27;;;;;;;0.40;0.40;;;;;;;;;;7330176;19;162437;-16
2021/10/17 08:56:00;;;;;;;;;;;;;;;;;;7331173;19;154164;-12
2021/10/17 08:58:34;;;;;;;0.40;0.40;;;;;;;;;;7330423;19;153419;-15
2021/10/17 09:01:10;;;;;;;0.50;0.50;;;;;;;;;;7327897;19;162007;-13
2021/10/17 09:03:55;;;;;;;0.85;0.40;;;;;;;;;;7327007;19;162760;-14
2021/10/17 09:06:34;;;;;;;0.50;0.50;;;;;;;;;;7330228;19;154298;-16
2021/10/17 09:09:05;;;;;;;0.43;0.43;;;;;;;;;;7330045;19;153567;-13
2021/10/17 09:11:48;;;;;;;0.40;0.40;;;;;;;;;;7329595;19;162221;-13
2021/10/17 09:14:24;;;;;;;0.30;0.30;;;;;;;;;;7330772;19;162529;-14
2021/10/17 09:16:54;;;;;;;0.40;0.40;;;;;;;;;;7333233;19;154227;-15
2021/10/17 09:19:32;;;;;;;0.40;0.40;;;;;;;;;;7331452;19;153688;-13
2021/10/17 09:22:06;;;;;;;0.40;0.40;;;;;;;;;;7332205;19;162039;-17
2021/10/17 09:24:39;;;;;;;0.32;0.32;;;;;;;;;;7334147;19;163107;-14
2021/10/17 09:27:13;;;;;;;0.45;0.45;;;;;;;;;;7330611;19;154182;-18
2021/10/17 09:29:48;;;;;;;0.50;0.50;;;;;;;;;;7330722;19;153539;-17
2021/10/17 09:32:18;;;;;;;0.40;0.40;;;;;;;;;;7329048;19;161861;-17
2021/10/17 09:34:55;;;;;;;0.40;0.40;;;;;;;;;;7330060;19;162377;-15
2021/10/17 09:37:38;;;;;;;0.32;0.32;;;;;;;;;;7330449;19;154162;-14
2021/10/17 09:40:25;;;;;;;0.40;0.40;;;;;;;;;;7329027;19;153555;-12
2021/10/17 09:43:23;;;;;;;0.40;0.40;;;;;;;;;;7328040;19;163984;-15
2021/10/17 09:46:13;;;;;;;0.40;0.40;;;;;;;;;;7328451;19;162800;-14
2021/10/17 09:48:42;;;;;;;0.40;0.40;;;;;;;;;;7330256;19;154069;-11
2021/10/17 09:51:15;;;;;;;0.43;0.43;;;;;;;;;;7328689;19;153624;-15
2021/10/17 09:53:48;;;;;;;0.40;0.40;;;;;;;;;;7329372;19;162567;-15
2021/10/17 09:56:22;;;;;;;0.40;0.40;;;;;;;;;;7328595;19;162650;-12
2021/10/17 09:58:54;;;;;;;0.40;0.40;;;;;;;;;;7328709;19;154012;-16
2021/10/17 10:01:23;;;;;;;0.50;0.30;;;;;;;;;;7327620;19;153565;-13
2021/10/17 10:03:56;;;;;;;0.50;0.50;;;;;;;;;;7326592;19;134004;-15
2021/10/17 10:06:26;;;;;;;0.90;0.60;;;;;;;;;;7329081;19;162329;-13
2021/10/17 10:09:02;;;;;;;0.40;0.40;;;;;;;;;;7328222;19;153987;-12
2021/10/17 10:11:31;;;;;;;0.55;0.55;;;;;;;;;;7329543;19;153608;-13
2021/10/17 10:14:05;;;;;;;0.60;0.40;;;;;;;;;;7327887;19;161804;-12
2021/10/17 10:16:35;;;;;;;0.50;0.50;;;;;;;;;;7327688;19;162374;-15
2021/10/17 10:19:08;;;;;;;0.40;0.40;;;;;;;;;;7329288;19;154136;-14
2021/10/17 10:21:36;;;;;;;;;;;;;;;;;;7326009;19;153579;-14
2021/10/17 10:24:10;;;;;;;0.43;0.43;;;;;;;;;;7327266;19;161843;-16
2021/10/17 10:26:41;;;;;;;0.60;0.60;;;;;;;;;;7325360;19;163305;-12
2021/10/17 10:29:23;;;;;;;0.52;0.52;;;;;;;;;;7326731;19;154018;-14
2021/10/17 10:31:54;;;;;;;0.90;0.50;;;;;;;;;;7328497;19;153586;-14
2021/10/17 10:34:22;;;;;;;1.10;0.50;;;;;;;;;;7328098;19;161799;-15
2021/10/17 10:36:54;;;;;;;0.50;0.50;;;;;;;;;;7328141;19;162392;-14
2021/10/17 10:39:24;;;;;;;0.60;0.60;;;;;;;;;;7328351;19;153945;-13
2021/10/17 10:42:03;;;;;;;0.50;0.50;;;;;;;;;;7325871;19;153682;-12
2021/10/17 10:44:31;;;;;;;0.50;0.50;;;;;;;;;;7327785;19;161811;-15
2021/10/17 10:47:23;;;;;;;0.60;0.60;;;;;;;;;;7326475;19;162398;-14
2021/10/17 10:49:53;;;;;;;0.50;0.50;;;;;;;;;;7326602;19;153974;-14
2021/10/17 10:52:23;;;;;;;0.75;0.63;;;;;;;;;;7326425;19;153804;-16
2021/10/17 10:54:53;;;;;;;0.60;0.60;;;;;;;;;;7329081;19;162310;-13
2021/10/17 10:57:45;;;;;;;0.50;0.50;;;;;;;;;;7334423;19;163102;-14
2021/10/17 11:00:16;;;;;;;0.63;0.63;;;;;;;;;;7334768;19;154160;-16
2021/10/17 11:03:13;;;;;;;0.80;0.70;;;;;;;;;;7333567;19;153357;-13
2021/10/17 11:06:04;;;;;;;0.57;0.57;;;;;;;;;;7334480;19;161862;-14
2021/10/17 11:08:37;;;;;;;0.60;0.60;;;;;;;;;;7332936;19;162423;-13
2021/10/17 11:11:05;;;;;;;0.50;0.50;;;;;;;;;;7334635;19;153943;-13
2021/10/17 11:13:40;;;;;;;0.65;0.65;;;;;;;;;;7337556;19;153496;-16
2021/10/17 11:16:19;;;;;;;0.50;0.50;;;;;;;;;;7337212;19;161802;-16
2021/10/17 11:18:56;;;;;;;0.50;0.50;;;;;;;;;;7333696;19;162507;-15
2021/10/17 11:21:30;;;;;;;0.52;0.52;;;;;;;;;;7332894;19;153966;-14
2021/10/17 11:23:59;;;;;;;0.50;0.50;;;;;;;;;;7334063;19;153516;-12
2021/10/17 11:26:27;;;;;;;0.50;0.50;;;;;;;;;;7332623;19;162129;-12
2021/10/17 11:28:55;;;;;;;0.40;0.40;;;;;;;;;;7333463;19;162609;-12
2021/10/17 11:31:25;;;;;;;0.50;0.50;;;;;;;;;;7333741;19;154047;-13
2021/10/17 11:33:53;;;;;;;0.40;0.40;;;;;;;;;;7333554;19;153898;-15
2021/10/17 11:36:22;;;;;;;0.40;0.40;;;;;;;;;;7333105;19;161970;-14
2021/10/17 11:38:54;;;;;;;0.50;0.50;;;;;;;;;;7331435;19;163979;-15
2021/10/17 11:41:22;;;;;;;0.40;0.40;;;;;;;;;;7332126;19;153989;-14
2021/10/17 11:43:52;;;;;;;0.30;0.30;;;;;;;;;;7333140;19;153516;-15
2021/10/17 11:46:27;;;;;;;0.40;0.40;;;;;;;;;;7335943;19;161767;-13
2021/10/17 11:49:05;;;;;;;0.45;0.45;;;;;;;;;;7334870;19;162571;-14
2021/10/17 11:51:33;;;;;;;0.30;0.30;;;;;;;;;;7335902;19;154103;-15
2021/10/17 11:54:02;;;;;;;0.40;0.40;;;;;;;;;;7335020;19;153633;-14
2021/10/17 11:56:31;;;;;;;0.35;0.35;;;;;;;;;;7336385;19;161777;-13
2021/10/17 11:59:09;;;;;;;0.30;0.30;;;;;;;;;;7334677;19;162365;-13
2021/10/17 12:01:37;;;;;;;0.30;0.30;;;;;;;;;;7334949;19;154003;-13
2021/10/17 12:04:05;;;;;;;0.30;0.30;;;;;;;;;;7333423;19;153705;-11
2021/10/17 12:06:33;;;;;;;0.30;0.30;;;;;;;;;;7331925;19;161831;-13
2021/10/17 12:09:01;;;;;;;0.50;0.50;;;;;;;;;;7332709;19;162536;-14
2021/10/17 12:11:29;;;;;;;0.40;0.40;;;;;;;;;;7333019;19;154066;-14
2021/10/17 12:14:06;;;;;;;0.30;0.30;;;;;;;;;;7331719;19;153591;-14
2021/10/17 12:16:39;;;;;;;0.40;0.40;;;;;;;;;;7331284;19;161725;-15
2021/10/17 12:19:06;;;;;;;0.40;0.40;;;;;;;;;;7331048;19;162501;-13
2021/10/17 12:21:41;;;;;;;0.30;0.30;;;;;;;;;;7331180;19;153992;-15
2021/10/17 12:24:10;;;;;;;0.30;0.30;;;;;;;;;;7331188;19;153656;-15
2021/10/17 12:26:56;;;;;;;0.30;0.30;;;;;;;;;;7332155;19;161848;-13
2021/10/17 12:29:29;;;;;;;0.30;0.30;;;;;;;;;;7332032;19;162473;-14
2021/10/17 12:32:00;;;;;;;0.32;0.32;;;;;;;;;;7332600;19;153978;-15
2021/10/17 12:34:41;;;;;;;0.40;0.40;;;;;;;;;;7332324;19;153664;-16
2021/10/17 12:37:10;;;;;;;0.30;0.30;;;;;;;;;;7331839;19;161834;-12
2021/10/17 12:39:39;;;;;;;0.30;0.30;;;;;;;;;;7331537;19;162464;-14
2021/10/17 12:42:07;;;;;;;0.20;0.20;;;;;;;;;;7330261;19;153972;-15
2021/10/17 12:44:47;;;;;;;0.30;0.30;;;;;;;;;;7331902;19;153508;-14
2021/10/17 12:47:15;;;;;;;0.40;0.40;;;;;;;;;;7330169;19;162126;-14
2021/10/17 12:49:47;;;;;;;0.30;0.30;;;;;;;;;;7331374;19;162685;-14
2021/10/17 12:52:32;;;;;;;0.40;0.40;;;;;;;;;;7330604;19;154013;-16
2021/10/17 12:55:03;;;;;;;0.30;0.30;;;;;;;;;;7331805;19;153579;-15
2021/10/17 12:57:31;;;;;;;0.40;0.40;;;;;;;;;;7331537;19;161794;-15
2021/10/17 13:00:02;;;;;;;0.30;0.30;;;;;;;;;;7331391;19;162511;-14
2021/10/17 13:02:37;;;;;;;0.20;0.20;;;;;;;;;;7331137;19;154032;-14
2021/10/17 13:05:15;;;;;;;0.30;0.30;;;;;;;;;;7335037;19;153820;-15
2021/10/17 13:07:44;;;;;;;0.30;0.30;;;;;;;;;;7334056;19;161912;-15
2021/10/17 13:10:16;;;;;;;0.30;0.30;;;;;;;;;;7334270;19;162533;-15
2021/10/17 13:12:52;;;;;;;0.45;0.45;;;;;;;;;;7334377;19;154106;-17
2021/10/17 13:15:26;;;;;;;0.38;0.38;;;;;;;;;;7334480;19;153953;-13
2021/10/17 13:17:57;;;;;;;0.40;0.40;;;;;;;;;;7331777;19;162386;-16
2021/10/17 13:20:27;;;;;;;0.25;0.25;;;;;;;;;;7332449;19;162525;-16
2021/10/17 13:22:58;;;;;;;0.30;0.30;;;;;;;;;;7330524;19;154038;-14
2021/10/17 13:25:28;;;;;;;0.32;0.32;;;;;;;;;;7333388;19;153643;-14
2021/10/17 13:27:58;;;;;;;0.30;0.30;;;;;;;;;;7333233;19;162105;-15
2021/10/17 13:30:28;;;;;;;0.47;0.40;;;;;;;;;;7334137;19;162423;-14
2021/10/17 13:32:58;;;;;;;0.40;0.40;;;;;;;;;;7333581;19;154295;-13
2021/10/17 13:35:26;;;;;;;0.30;0.30;;;;;;;;;;7333801;19;153532;-13
2021/10/17 13:37:56;;;;;;;0.30;0.30;;;;;;;;;;7333551;19;161803;-13
2021/10/17 13:40:24;;;;;;;0.30;0.30;;;;;;;;;;7332229;19;162517;-15
2021/10/17 13:42:58;;;;;;;0.30;0.30;;;;;;;;;;7332548;19;154378;-13
2021/10/17 13:45:27;;;;;;;0.30;0.30;;;;;;;;;;7330632;19;153155;-15
2021/10/17 13:47:56;;;;;;;0.40;0.40;;;;;;;;;;7327413;19;161806;-15
2021/10/17 13:50:25;;;;;;;0.50;0.30;;;;;;;;;;7329871;19;162627;-17
2021/10/17 13:52:53;;;;;;;0.30;0.30;;;;;;;;;;7330142;19;154054;-15
2021/10/17 13:55:21;;;;;;;0.30;0.30;;;;;;;;;;7330136;19;153515;-16
2021/10/17 13:57:49;;;;;;;0.35;0.35;;;;;;;;;;7328479;19;162092;-15
2021/10/17 14:00:24;;;;;;;0.20;0.20;;;;;;;;;;7329480;19;162365;-17
2021/10/17 14:02:53;;;;;;;0.20;0.20;;;;;;;;;;7327676;19;154005;-17
2021/10/17 14:05:24;;;;;;;0.30;0.30;;;;;;;;;;7329719;19;153613;-13
2021/10/17 14:07:52;;;;;;;0.30;0.30;;;;;;;;;;7329311;19;161853;-12
2021/10/17 14:10:20;;;;;;;0.30;0.30;;;;;;;;;;7329270;19;162514;-14
2021/10/17 14:12:48;;;;;;;0.30;0.30;;;;;;;;;;7328418;19;154249;-15
2021/10/17 14:15:16;;;;;;;0.30;0.30;;;;;;;;;;7329309;19;153547;-14
2021/10/17 14:17:44;;;;;;;0.30;0.30;;;;;;;;;;7329120;19;161809;-12
2021/10/17 14:20:12;;;;;;;0.35;0.35;;;;;;;;;;7328800;19;162630;-16
2021/10/17 14:22:40;;;;;;;0.25;0.25;;;;;;;;;;7327732;19;154109;-16
2021/10/17 14:25:08;;;;;;;0.38;0.38;;;;;;;;;;7327924;19;153935;-17
2021/10/17 14:27:36;;;;;;;0.25;0.25;;;;;;;;;;7328671;19;161779;-15
2021/10/17 14:30:04;;;;;;;0.30;0.30;;;;;;;;;;7333593;19;162439;-16
2021/10/17 14:32:32;;;;;;;0.30;0.30;;;;;;;;;;7335847;19;154110;-14
2021/10/17 14:35:00;;;;;;;0.30;0.30;;;;;;;;;;7334657;19;153726;-15
2021/10/17 14:37:29;;;;;;;0.30;0.30;;;;;;;;;;7335414;19;162031;-14
2021/10/17 14:39:57;;;;;;;0.22;0.22;;;;;;;;;;7335227;19;162534;-14
2021/10/17 14:42:25;;;;;;;0.30;0.30;;;;;;;;;;7334695;19;154315;-16
2021/10/17 14:44:53;;;;;;;0.30;0.30;;;;;;;;;;7335430;19;153568;-14
2021/10/17 14:47:21;;;;;;;0.30;0.30;;;;;;;;;;7333992;19;161867;-13
2021/10/17 14:49:50;;;;;;;0.30;0.30;;;;;;;;;;7334902;19;162518;-15
2021/10/17 14:52:20;;;;;;;0.35;0.35;;;;;;;;;;7335365;19;154045;-15
2021/10/17 14:54:48;;;;;;;0.30;0.30;;;;;;;;;;7335248;19;154077;-14